Time;durP1;ratioP1;P1;durP2;ratioP2;P2;SDS_P1;SDS_P2;PMS_P1;PMS_P2;Temp;Humidity;BMP_temperature;BMP_pressure;BME280_temperature;BME280_humidity;BME280_pressure;Samples;Min_cycle;Max_cycle;Signal;HPM_P1;HPM_P2
2022/04/01 00:00:29;;;;;;;;;;;4.80;90.90;;;;;;5093295;28;20277;-82
2022/04/01 00:02:54;;;;;;;;;;;4.70;90.90;;;;;;5093365;28;19908;-82
2022/04/01 00:05:20;;;;;;;;;;;4.70;91.30;;;;;;5075127;28;19957;-82
2022/04/01 00:07:46;;;;;;;;;;;4.80;91.30;;;;;;5093279;28;19915;-82
2022/04/01 00:10:11;;;;;;;;;;;4.70;91.40;;;;;;5093811;28;20344;-82
2022/04/01 00:12:40;;;;;;;;;;;4.70;91.30;;;;;;5095430;28;19908;-82
2022/04/01 00:15:06;;;;;;;;;;;4.60;91.30;;;;;;5096915;28;19908;-81
2022/04/01 00:17:32;;;;;;;;;;;4.60;91.60;;;;;;5078363;28;20016;-82
2022/04/01 00:19:58;;;;;;;;;;;4.50;91.90;;;;;;5097103;28;19961;-82
2022/04/01 00:22:24;;;;;;;;;;;4.50;92.10;;;;;;5078552;28;19951;-82
2022/04/01 00:24:49;;;;;;;;;;;4.50;92.30;;;;;;5096722;28;19908;-81
2022/04/01 00:27:15;;;;;;;;;;;4.50;92.40;;;;;;5096916;28;20360;-82
2022/04/01 00:29:40;;;;;;;;;;;4.50;92.70;;;;;;5096681;28;19912;-82
2022/04/01 00:32:06;;;;;;;;;;;4.40;92.80;;;;;;5078407;28;19908;-82
2022/04/01 00:34:33;;;;;;;;;;;4.40;93.00;;;;;;5096602;28;20008;-82
2022/04/01 00:37:00;;;;;;;;;;;4.40;93.10;;;;;;5078287;28;19916;-83
2022/04/01 00:39:29;;;;;;;;;;;4.20;93.90;;;;;;5096436;28;19930;-82
2022/04/01 00:41:55;;;;;;;;;;;4.30;93.90;;;;;;5096381;28;19908;-82
2022/04/01 00:44:21;;;;;;;;;;;4.30;94.00;;;;;;5096276;28;20407;-83
2022/04/01 00:46:49;;;;;;;;;;;4.30;94.10;;;;;;5078016;28;19908;-82
2022/04/01 00:49:15;;;;;;;;;;;4.30;93.80;;;;;;5078052;28;19908;-82
2022/04/01 00:51:42;;;;;;;;;;;4.20;93.90;;;;;;5078025;28;20007;-82
2022/04/01 00:54:08;;;;;;;;;;;4.30;93.60;;;;;;5077978;28;19915;-82
2022/04/01 00:56:34;;;;;;;;;;;4.30;93.20;;;;;;5096128;28;19912;-82
2022/04/01 00:59:00;;;;;;;;;;;4.20;93.30;;;;;;5096118;28;19930;-81
2022/04/01 01:01:27;;;;;;;;;;;4.30;92.50;;;;;;5077861;28;20355;-82
2022/04/01 01:03:52;;;;;;;;;;;4.40;91.80;;;;;;5077823;28;19947;-82
2022/04/01 01:06:19;;;;;;;;;;;4.30;91.80;;;;;;5096087;28;19915;-82
2022/04/01 01:08:45;;;;;;;;;;;4.20;91.70;;;;;;5095882;28;19916;-81
2022/04/01 01:11:11;;;;;;;;;;;4.30;91.30;;;;;;5095832;28;19908;-82
2022/04/01 01:13:38;;;;;;;;;;;4.30;91.50;;;;;;5095774;28;19912;-82
2022/04/01 01:16:04;;;;;;;;;;;4.30;91.20;;;;;;5095765;28;19908;-82
2022/04/01 01:18:29;;;;;;;;;;;4.20;91.00;;;;;;5077249;28;19920;-81
2022/04/01 01:20:55;;;;;;;;;;;4.30;91.10;;;;;;5095630;28;19908;-82
2022/04/01 01:23:26;;;;;;;;;;;4.30;91.00;;;;;;5076218;28;19908;-81
2022/04/01 01:25:52;;;;;;;;;;;4.30;90.90;;;;;;5077119;28;19919;-82
2022/04/01 01:28:17;;;;;;;;;;;4.20;90.90;;;;;;5095486;28;20261;-82
2022/04/01 01:30:43;;;;;;;;;;;4.20;91.10;;;;;;5095473;28;19942;-82
2022/04/01 01:33:09;;;;;;;;;;;4.20;91.50;;;;;;5095548;28;19908;-82
2022/04/01 01:35:34;;;;;;;;;;;4.10;91.40;;;;;;5095522;28;19916;-82
2022/04/01 01:38:01;;;;;;;;;;;4.10;91.60;;;;;;5077009;28;20323;-82
2022/04/01 01:40:27;;;;;;;;;;;4.00;91.70;;;;;;5095795;28;19908;-82
2022/04/01 01:42:53;;;;;;;;;;;4.10;91.70;;;;;;5095213;28;20368;-82
2022/04/01 01:45:19;;;;;;;;;;;4.10;91.70;;;;;;5077008;28;19999;-81
2022/04/01 01:47:45;;;;;;;;;;;4.00;92.20;;;;;;5095248;28;20383;-81
2022/04/01 01:55:39;;;;;;;;;;;4.10;92.20;;;;;;5095054;28;19915;-84
2022/04/01 01:58:05;;;;;;;;;;;4.10;92.30;;;;;;5094821;28;20006;-84
2022/04/01 02:00:31;;;;;;;;;;;4.30;92.40;;;;;;5094882;28;20439;-84
2022/04/01 02:02:56;;;;;;;;;;;4.30;92.70;;;;;;5095232;28;19947;-84
2022/04/01 02:05:22;;;;;;;;;;;4.40;93.00;;;;;;5094935;28;19961;-83
2022/04/01 02:07:48;;;;;;;;;;;4.50;93.20;;;;;;5076544;28;19908;-84
2022/04/01 02:10:14;;;;;;;;;;;4.40;93.00;;;;;;5094735;28;19929;-82
2022/04/01 02:12:41;;;;;;;;;;;4.30;93.10;;;;;;5094635;28;19908;-82
2022/04/01 02:15:10;;;;;;;;;;;4.30;92.90;;;;;;5094574;28;20283;-82
2022/04/01 02:17:40;;;;;;;;;;;4.30;92.50;;;;;;5076154;28;19912;-82
2022/04/01 02:20:09;;;;;;;;;;;4.10;93.20;;;;;;5094498;28;19912;-83
2022/04/01 02:22:37;;;;;;;;;;;4.00;93.40;;;;;;5076217;28;19908;-82
2022/04/01 02:25:04;;;;;;;;;;;4.00;93.90;;;;;;5094369;28;19995;-81
2022/04/01 02:27:30;;;;;;;;;;;3.90;94.00;;;;;;5094404;28;19908;-81
2022/04/01 02:29:56;;;;;;;;;;;3.90;94.70;;;;;;5094424;28;19915;-82
2022/04/01 02:32:23;;;;;;;;;;;3.80;95.20;;;;;;5076069;28;19995;-82
2022/04/01 02:34:49;;;;;;;;;;;3.80;95.80;;;;;;5093869;28;19936;-83
2022/04/01 02:37:16;;;;;;;;;;;3.70;96.20;;;;;;5094130;28;19916;-82
2022/04/01 02:39:42;;;;;;;;;;;3.70;97.00;;;;;;5076036;28;19958;-82
2022/04/01 02:42:08;;;;;;;;;;;3.50;97.60;;;;;;5094137;28;19908;-82
2022/04/01 02:44:34;;;;;;;;;;;3.60;98.10;;;;;;5094360;28;19916;-82
2022/04/01 02:47:00;;;;;;;;;;;3.50;98.10;;;;;;5094075;28;19908;-83
2022/04/01 02:49:25;;;;;;;;;;;3.50;97.80;;;;;;5094125;28;20046;-82
2022/04/01 02:51:53;;;;;;;;;;;3.50;98.00;;;;;;5093997;28;20280;-82
2022/04/01 02:54:20;;;;;;;;;;;3.60;98.20;;;;;;5094259;28;20357;-82
2022/04/01 02:56:46;;;;;;;;;;;3.60;98.30;;;;;;5093834;28;20364;-82
2022/04/01 02:59:12;;;;;;;;;;;3.50;98.30;;;;;;5093962;28;19919;-82
2022/04/01 03:01:38;;;;;;;;;;;3.60;98.30;;;;;;5093880;28;19916;-82
2022/04/01 03:04:04;;;;;;;;;;;3.60;98.40;;;;;;5093846;28;20261;-82
2022/04/01 03:06:30;;;;;;;;;;;3.60;98.40;;;;;;5093868;28;19962;-82
2022/04/01 03:08:55;;;;;;;;;;;3.60;98.60;;;;;;5093754;28;19912;-82
2022/04/01 03:11:21;;;;;;;;;;;3.80;98.30;;;;;;5093849;28;19969;-84
2022/04/01 03:13:46;;;;;;;;;;;3.80;97.70;;;;;;5075635;28;19995;-85
2022/04/01 03:16:15;;;;;;;;;;;3.70;97.90;;;;;;5075539;28;19915;-84
2022/04/01 03:18:41;;;;;;;;;;;3.60;98.20;;;;;;5093759;28;19920;-84
2022/04/01 03:21:09;;;;;;;;;;;3.50;98.80;;;;;;5093656;28;19915;-83
2022/04/01 03:23:38;;;;;;;;;;;3.40;99.60;;;;;;5093648;28;19947;-83
2022/04/01 03:26:04;;;;;;;;;;;3.60;99.80;;;;;;5094081;28;20007;-84
2022/04/01 03:28:30;;;;;;;;;;;3.60;99.90;;;;;;5093733;28;19991;-84
2022/04/01 03:30:56;;;;;;;;;;;3.70;99.90;;;;;;5075414;28;19915;-84
2022/04/01 03:33:21;;;;;;;;;;;3.50;99.90;;;;;;5093631;28;19912;-84
2022/04/01 03:35:47;;;;;;;;;;;3.60;99.90;;;;;;5093544;28;20408;-83
2022/04/01 03:38:12;;;;;;;;;;;3.50;99.90;;;;;;5093440;28;19966;-84
2022/04/01 03:40:40;;;;;;;;;;;3.40;99.90;;;;;;5075486;28;19915;-84
2022/04/01 03:43:05;;;;;;;;;;;3.40;99.90;;;;;;5075299;28;19915;-84
2022/04/01 03:45:33;;;;;;;;;;;3.40;99.90;;;;;;5094437;28;19912;-84
2022/04/01 03:48:00;;;;;;;;;;;3.40;99.90;;;;;;5097403;28;19908;-85
2022/04/01 03:50:30;;;;;;;;;;;3.50;99.90;;;;;;5079190;28;19908;-84
2022/04/01 03:53:00;;;;;;;;;;;3.60;99.90;;;;;;5079152;28;19909;-85
2022/04/01 03:55:29;;;;;;;;;;;3.60;99.90;;;;;;5079030;28;19913;-84
2022/04/01 03:57:55;;;;;;;;;;;3.70;99.90;;;;;;5078939;28;20367;-84
2022/04/01 04:00:21;;;;;;;;;;;3.70;99.90;;;;;;5097235;28;19908;-83
2022/04/01 04:02:46;;;;;;;;;;;3.70;99.90;;;;;;5078739;28;20341;-85
2022/04/01 04:05:13;;;;;;;;;;;3.70;99.90;;;;;;5097135;28;20383;-84
2022/04/01 04:07:39;;;;;;;;;;;3.80;99.90;;;;;;5097190;28;20292;-84
2022/04/01 04:10:06;;;;;;;;;;;3.80;99.30;;;;;;5097017;28;19915;-85
2022/04/01 04:12:33;;;;;;;;;;;3.90;99.00;;;;;;5096983;28;20306;-84
2022/04/01 04:14:59;;;;;;;;;;;3.90;98.60;;;;;;5096916;28;19908;-84
2022/04/01 04:17:31;;;;;;;;;;;3.90;98.40;;;;;;5096956;28;20468;-84
2022/04/01 04:20:19;;;;;;;;;;;3.90;98.40;;;;;;5096899;28;20300;-83
2022/04/01 04:23:00;;;;;;;;;;;4.10;98.10;;;;;;5072901;28;19908;-82
2022/04/01 04:25:33;;;;;;;;;;;4.10;98.00;;;;;;5096748;28;19908;-82
2022/04/01 04:27:59;;;;;;;;;;;4.10;98.00;;;;;;5096780;28;19991;-84
2022/04/01 04:30:37;;;;;;;;;;;4.10;97.90;;;;;;5096828;28;19907;-83
2022/04/01 04:33:04;;;;;;;;;;;4.30;97.90;;;;;;5096751;28;19919;-83
2022/04/01 04:35:29;;;;;;;;;;;4.20;97.90;;;;;;5096639;28;20372;-85
2022/04/01 04:37:56;;;;;;;;;;;4.20;97.90;;;;;;5096411;28;19962;-85
2022/04/01 04:40:22;;;;;;;;;;;4.20;98.10;;;;;;5096810;28;19965;-84
2022/04/01 04:42:51;;;;;;;;;;;4.20;98.20;;;;;;5096549;28;19908;-84
2022/04/01 04:45:18;;;;;;;;;;;4.30;98.40;;;;;;5096305;28;19912;-85
2022/04/01 04:47:45;;;;;;;;;;;4.30;98.70;;;;;;5096404;28;19970;-84
2022/04/01 04:50:11;;;;;;;;;;;4.20;99.00;;;;;;5096249;28;19917;-84
2022/04/01 04:52:39;;;;;;;;;;;4.30;98.80;;;;;;5096610;28;19995;-84
2022/04/01 04:55:08;;;;;;;;;;;4.40;98.30;;;;;;5077950;28;19931;-84
2022/04/01 04:57:33;;;;;;;;;;;4.40;97.90;;;;;;5095821;28;20002;-85
2022/04/01 05:00:00;;;;;;;;;;;4.40;97.90;;;;;;5096203;28;19950;-84
2022/04/01 05:02:44;;;;;;;;;;;4.50;97.60;;;;;;5096279;28;19987;-84
2022/04/01 05:05:18;;;;;;;;;;;4.60;97.20;;;;;;5077821;28;20006;-85
2022/04/01 05:07:53;;;;;;;;;;;4.60;96.90;;;;;;5096371;28;20368;-84
2022/04/01 05:10:38;;;;;;;;;;;4.60;96.70;;;;;;5096069;28;19908;-84
2022/04/01 05:13:09;;;;;;;;;;;4.70;96.30;;;;;;5096013;28;19909;-85
2022/04/01 05:15:36;;;;;;;;;;;4.70;96.50;;;;;;5095905;28;19909;-84
2022/04/01 05:18:06;;;;;;;;;;;4.70;96.40;;;;;;5095204;28;19924;-85
2022/04/01 05:20:36;;;;;;;;;;;4.70;96.30;;;;;;5095917;28;19916;-83
2022/04/01 05:23:02;;;;;;;;;;;4.60;96.70;;;;;;5095572;28;19919;-85
2022/04/01 05:25:30;;;;;;;;;;;4.60;96.40;;;;;;5095682;28;19908;-85
2022/04/01 05:28:01;;;;;;;;;;;4.60;96.50;;;;;;5095497;28;19943;-84
2022/04/01 05:30:30;;;;;;;;;;;4.60;96.50;;;;;;5095721;28;20369;-85
2022/04/01 05:33:00;;;;;;;;;;;4.60;96.30;;;;;;5095576;28;19908;-83
2022/04/01 05:35:30;;;;;;;;;;;4.60;96.10;;;;;;5077237;28;19943;-85
2022/04/01 05:37:57;;;;;;;;;;;4.60;96.30;;;;;;5095511;28;20003;-84
2022/04/01 05:40:22;;;;;;;;;;;4.60;95.90;;;;;;5095258;28;20006;-84
2022/04/01 05:42:48;;;;;;;;;;;4.70;96.50;;;;;;5095285;28;19944;-83
2022/04/01 05:45:15;;;;;;;;;;;4.70;96.30;;;;;;5095355;28;19977;-84
2022/04/01 05:47:41;;;;;;;;;;;4.80;95.90;;;;;;5077009;28;19931;-84
2022/04/01 05:50:07;;;;;;;;;;;4.90;95.40;;;;;;5095089;28;19915;-84
2022/04/01 05:52:34;;;;;;;;;;;5.00;95.50;;;;;;5076718;28;19908;-84
2022/04/01 05:55:00;;;;;;;;;;;5.10;95.00;;;;;;5095035;28;19908;-84
2022/04/01 05:57:26;;;;;;;;;;;5.20;94.90;;;;;;5094857;28;19912;-82
2022/04/01 05:59:51;;;;;;;;;;;5.20;94.60;;;;;;5076592;28;20345;-82
2022/04/01 06:02:36;;;;;;;;;;;5.20;94.40;;;;;;5094836;28;20380;-83
2022/04/01 06:05:17;;;;;;;;;;;5.30;94.20;;;;;;5094789;28;19935;-82
2022/04/01 06:07:42;;;;;;;;;;;5.40;93.70;;;;;;5094655;28;19959;-82
2022/04/01 06:10:11;;;;;;;;;;;5.40;94.00;;;;;;5094575;28;20296;-83
2022/04/01 06:12:37;;;;;;;;;;;5.40;93.80;;;;;;5094964;28;19908;-82
2022/04/01 06:15:21;;;;;;;;;;;5.40;93.90;;;;;;5094653;28;19914;-83
2022/04/01 06:18:25;;;;;;;;;;;5.40;93.80;;;;;;5094330;28;19928;-82
2022/04/01 06:20:52;;;;;;;;;;;5.40;93.80;;;;;;5052238;28;20314;-82
2022/04/01 06:23:41;;;;;;;;;;;5.50;93.30;;;;;;5035517;28;19909;-83
2022/04/01 06:26:11;;;;;;;;;;;5.60;92.40;;;;;;5073542;28;20266;-82
2022/04/01 06:28:39;;;;;;;;;;;5.60;92.30;;;;;;5076221;28;19962;-82
2022/04/01 06:31:06;;;;;;;;;;;5.70;91.60;;;;;;5076144;28;19915;-82
2022/04/01 06:33:37;;;;;;;;;;;5.70;91.80;;;;;;5094489;28;19908;-83
2022/04/01 06:36:04;;;;;;;;;;;5.80;93.70;;;;;;5094458;28;20391;-82
2022/04/01 06:38:29;;;;;;;;;;;5.80;96.00;;;;;;5076010;28;19919;-82
2022/04/01 06:41:08;;;;;;;;;;;5.70;96.60;;;;;;5094161;28;19993;-82
2022/04/01 06:43:35;;;;;;;;;;;6.00;97.30;;;;;;5094307;28;20000;-82
2022/04/01 06:46:02;;;;;;;;;;;6.20;96.20;;;;;;5094090;28;19915;-83
2022/04/01 06:48:27;;;;;;;;;;;6.10;96.20;;;;;;5094078;28;19908;-82
2022/04/01 06:50:53;;;;;;;;;;;6.60;96.10;;;;;;5094064;28;19930;-82
2022/04/01 06:53:19;;;;;;;;;;;7.50;93.80;;;;;;5094383;28;19961;-83
2022/04/01 06:55:47;;;;;;;;;;;8.30;91.90;;;;;;5093966;28;19981;-82
2022/04/01 06:58:13;;;;;;;;;;;8.10;90.50;;;;;;5093956;28;19923;-82
2022/04/01 07:00:40;;;;;;;;;;;7.90;89.20;;;;;;5093943;28;19908;-82
2022/04/01 07:03:06;;;;;;;;;;;8.40;89.60;;;;;;5093717;28;19955;-82
2022/04/01 07:05:34;;;;;;;;;;;8.90;87.30;;;;;;5093817;28;19912;-84
2022/04/01 07:08:03;;;;;;;;;;;9.60;85.50;;;;;;5093868;28;20015;-84
2022/04/01 07:10:29;;;;;;;;;;;10.30;83.70;;;;;;5075595;28;19908;-83
2022/04/01 07:12:55;;;;;;;;;;;10.80;80.10;;;;;;5093777;28;19908;-83
2022/04/01 07:15:21;;;;;;;;;;;11.00;77.00;;;;;;5075662;28;19953;-83
2022/04/01 07:17:47;;;;;;;;;;;11.00;75.90;;;;;;5075299;28;19934;-83
2022/04/01 07:20:13;;;;;;;;;;;10.80;75.50;;;;;;5077558;28;19908;-83
2022/04/01 07:22:40;;;;;;;;;;;10.00;74.60;;;;;;5098046;28;19908;-84
2022/04/01 07:25:07;;;;;;;;;;;9.50;75.60;;;;;;5096617;28;20284;-83
2022/04/01 07:27:33;;;;;;;;;;;9.50;74.30;;;;;;5080182;28;19916;-83
2022/04/01 07:29:58;;;;;;;;;;;9.40;73.80;;;;;;5097788;28;20326;-82
2022/04/01 07:32:34;;;;;;;;;;;9.40;73.00;;;;;;5097730;28;19908;-83
2022/04/01 07:35:00;;;;;;;;;;;9.30;73.70;;;;;;5098044;28;19909;-83
2022/04/01 07:37:27;;;;;;;;;;;9.50;72.80;;;;;;5097654;28;19912;-83
2022/04/01 07:39:53;;;;;;;;;;;9.30;72.20;;;;;;5097599;28;19912;-83
2022/04/01 07:42:21;;;;;;;;;;;9.40;72.30;;;;;;5097584;28;19931;-82
2022/04/01 07:44:48;;;;;;;;;;;9.60;72.00;;;;;;5079649;28;19908;-83
2022/04/01 07:47:14;;;;;;;;;;;10.10;71.70;;;;;;5079335;28;19934;-83
2022/04/01 07:49:43;;;;;;;;;;;10.60;69.30;;;;;;5097478;28;19908;-84
2022/04/01 07:52:09;;;;;;;;;;;11.90;67.80;;;;;;5097439;28;19909;-84
2022/04/01 07:54:35;;;;;;;;;;;13.10;65.10;;;;;;5079109;28;19908;-84
2022/04/01 07:57:02;;;;;;;;;;;14.10;62.30;;;;;;5097206;28;19912;-85
2022/04/01 07:59:28;;;;;;;;;;;14.40;61.00;;;;;;5097305;28;19999;-84
2022/04/01 08:01:53;;;;;;;;;;;14.10;58.70;;;;;;5097389;28;20453;-84
2022/04/01 08:04:19;;;;;;;;;;;14.30;59.30;;;;;;5079046;28;19931;-85
2022/04/01 08:06:45;;;;;;;;;;;14.00;56.90;;;;;;5097513;28;19916;-84
2022/04/01 08:09:11;;;;;;;;;;;14.50;58.20;;;;;;5097063;28;20002;-84
2022/04/01 08:11:36;;;;;;;;;;;15.40;57.00;;;;;;5097322;28;19908;-83
2022/04/01 08:14:02;;;;;;;;;;;16.30;55.60;;;;;;5096944;28;19943;-84
2022/04/01 08:16:28;;;;;;;;;;;16.70;53.00;;;;;;5096774;28;19995;-85
2022/04/01 08:18:54;;;;;;;;;;;15.30;53.80;;;;;;5096823;28;20385;-84
2022/04/01 08:21:20;;;;;;;;;;;13.50;55.60;;;;;;5078596;28;19908;-83
2022/04/01 08:23:45;;;;;;;;;;;13.10;58.30;;;;;;5097045;28;20292;-85
2022/04/01 08:26:12;;;;;;;;;;;13.30;57.50;;;;;;5096723;28;19908;-84
2022/04/01 08:28:38;;;;;;;;;;;15.20;56.10;;;;;;5096762;28;19916;-85
2022/04/01 08:31:05;;;;;;;;;;;14.60;55.20;;;;;;5077787;28;19930;-84
2022/04/01 08:33:31;;;;;;;;;;;15.40;55.70;;;;;;5078473;28;19943;-85
2022/04/01 08:35:57;;;;;;;;;;;14.70;54.40;;;;;;5078423;28;19908;-84
2022/04/01 08:38:22;;;;;;;;;;;13.50;55.90;;;;;;5097006;28;19916;-85
2022/04/01 08:40:48;;;;;;;;;;;13.10;55.60;;;;;;5096442;28;19940;-84
2022/04/01 08:43:22;;;;;;;;;;;14.80;54.70;;;;;;5096759;28;19909;-84
2022/04/01 08:45:48;;;;;;;;;;;14.20;51.50;;;;;;5096941;28;19916;-84
2022/04/01 08:48:14;;;;;;;;;;;13.70;52.00;;;;;;5096611;28;19912;-84
2022/04/01 08:50:43;;;;;;;;;;;12.90;53.70;;;;;;5096813;28;19914;-83
2022/04/01 08:53:08;;;;;;;;;;;11.80;55.50;;;;;;5096229;28;19912;-84
2022/04/01 08:55:34;;;;;;;;;;;12.40;57.30;;;;;;5096122;28;20323;-84
2022/04/01 08:57:59;;;;;;;;;;;13.90;55.40;;;;;;5096164;28;19912;-84
2022/04/01 09:00:25;;;;;;;;;;;15.80;53.30;;;;;;5096315;28;19908;-84
2022/04/01 09:03:01;;;;;;;;;;;15.20;51.90;;;;;;5077872;28;19916;-84
2022/04/01 09:05:27;;;;;;;;;;;13.80;54.30;;;;;;5096269;28;20478;-84
2022/04/01 09:08:00;;;;;;;;;;;12.50;56.80;;;;;;5077901;28;19916;-83
2022/04/01 09:10:25;;;;;;;;;;;11.80;57.60;;;;;;5096245;28;19915;-82
2022/04/01 09:12:54;;;;;;;;;;;12.40;58.70;;;;;;5077681;28;19943;-83
2022/04/01 09:15:20;;;;;;;;;;;15.90;55.20;;;;;;5096053;28;20380;-85
2022/04/01 09:17:46;;;;;;;;;;;17.00;51.80;;;;;;5095719;28;20016;-84
2022/04/01 09:20:14;;;;;;;;;;;18.20;48.30;;;;;;5096184;28;19931;-84
2022/04/01 09:22:40;;;;;;;;;;;16.50;48.80;;;;;;5095692;28;19915;-85
2022/04/01 09:25:07;;;;;;;;;;;14.10;51.30;;;;;;5096214;28;19960;-82
2022/04/01 09:27:41;;;;;;;;;;;12.50;53.80;;;;;;5077439;28;20293;-83
2022/04/01 09:30:09;;;;;;;;;;;14.10;52.60;;;;;;5095845;28;19998;-85
2022/04/01 09:32:36;;;;;;;;;;;17.30;50.50;;;;;;5095530;28;19909;-84
2022/04/01 09:35:02;;;;;;;;;;;18.60;45.60;;;;;;5077281;28;20354;-83
2022/04/01 09:37:40;;;;;;;;;;;18.70;48.40;;;;;;5095910;28;20004;-84
2022/04/01 09:40:07;;;;;;;;;;;21.40;43.80;;;;;;5095305;28;19912;-83
2022/04/01 09:42:33;;;;;;;;;;;22.60;42.30;;;;;;5076429;28;20018;-83
2022/04/01 09:44:59;;;;;;;;;;;21.70;41.90;;;;;;5095062;28;19908;-84
2022/04/01 09:47:26;;;;;;;;;;;17.70;45.00;;;;;;5095183;28;19916;-84
2022/04/01 09:49:54;;;;;;;;;;;15.90;46.80;;;;;;5095175;28;20380;-84
2022/04/01 09:52:22;;;;;;;;;;;14.50;46.70;;;;;;5095624;28;20004;-84
2022/04/01 09:54:49;;;;;;;;;;;12.80;49.40;;;;;;5076877;28;19908;-84
2022/04/01 09:57:15;;;;;;;;;;;18.20;46.00;;;;;;5095176;28;19919;-85
2022/04/01 09:59:41;;;;;;;;;;;21.80;40.90;;;;;;5094951;28;20381;-85
2022/04/01 10:02:07;;;;;;;;;;;22.40;38.80;;;;;;5095216;28;19947;-84
2022/04/01 10:04:32;;;;;;;;;;;22.20;40.30;;;;;;5094885;28;19916;-85
2022/04/01 10:06:59;;;;;;;;;;;20.20;39.60;;;;;;5094814;28;19908;-84
2022/04/01 10:09:26;;;;;;;;;;;22.00;40.60;;;;;;5094811;28;19991;-84
2022/04/01 10:11:52;;;;;;;;;;;24.20;37.90;;;;;;5094957;28;19912;-84
2022/04/01 10:14:20;;;;;;;;;;;22.50;39.20;;;;;;5076561;28;19909;-85
2022/04/01 10:16:46;;;;;;;;;;;24.20;38.00;;;;;;5094876;28;19908;-84
2022/04/01 10:19:38;;;;;;;;;;;25.90;37.10;;;;;;5094509;28;19920;-85
2022/04/01 10:22:04;;;;;;;;;;;24.90;35.20;;;;;;5092146;28;19908;-84
2022/04/01 10:24:44;;;;;;;;;;;26.10;34.90;;;;;;5094443;28;19920;-84
2022/04/01 10:27:14;;;;;;;;;;;27.60;34.60;;;;;;5094790;28;19909;-86
2022/04/01 10:29:40;;;;;;;;;;;28.60;33.30;;;;;;5076571;28;19947;-85
2022/04/01 10:32:21;;;;;;;;;;;29.50;32.50;;;;;;5076136;28;19969;-84
2022/04/01 10:34:47;;;;;;;;;;;30.30;31.40;;;;;;5094605;28;20425;-84
2022/04/01 10:37:14;;;;;;;;;;;28.80;31.70;;;;;;5075990;28;19938;-85
2022/04/01 10:39:50;;;;;;;;;;;25.70;34.60;;;;;;5076162;28;19908;-85
2022/04/01 10:42:16;;;;;;;;;;;23.70;35.20;;;;;;5094563;28;19908;-85
2022/04/01 10:44:50;;;;;;;;;;;26.70;34.40;;;;;;5092849;28;19912;-84
2022/04/01 10:47:16;;;;;;;;;;;29.30;33.00;;;;;;5094237;28;20349;-84
2022/04/01 10:52:25;;;;;;;;;;;26.60;33.60;;;;;;5094107;28;19961;-84
2022/04/01 10:55:05;;;;;;;;;;;28.00;33.50;;;;;;5093682;28;19908;-85
2022/04/01 10:57:37;;;;;;;;;;;26.50;32.40;;;;;;5094227;28;19973;-84
2022/04/01 11:00:08;;;;;;;;;;;24.70;35.10;;;;;;5094206;28;20360;-84
2022/04/01 11:02:33;;;;;;;;;;;21.20;37.90;;;;;;5094201;28;20333;-84
2022/04/01 11:05:00;;;;;;;;;;;18.00;43.20;;;;;;5075806;28;19908;-84
2022/04/01 11:07:25;;;;;;;;;;;15.20;45.70;;;;;;5093943;28;20311;-84
2022/04/01 11:09:52;;;;;;;;;;;17.40;45.00;;;;;;5093913;28;19999;-84
2022/04/01 11:12:21;;;;;;;;;;;22.70;39.50;;;;;;5076181;28;20570;-84
2022/04/01 11:14:55;;;;;;;;;;;25.50;36.80;;;;;;5054438;28;19909;-84
2022/04/01 11:17:22;;;;;;;;;;;27.80;35.00;;;;;;5081490;28;20329;-85
2022/04/01 11:20:02;;;;;;;;;;;28.00;33.30;;;;;;5064298;28;20430;-85
2022/04/01 11:22:40;;;;;;;;;;;24.40;34.20;;;;;;5085687;28;19912;-84
2022/04/01 11:25:07;;;;;;;;;;;21.30;38.10;;;;;;5081330;28;19911;-84
2022/04/01 11:27:34;;;;;;;;;;;20.30;40.50;;;;;;5083292;28;19912;-84
2022/04/01 11:30:07;;;;;;;;;;;19.70;42.80;;;;;;5063664;28;20373;-84
2022/04/01 11:32:37;;;;;;;;;;;22.40;38.00;;;;;;5055408;28;19913;-83
2022/04/01 11:35:03;;;;;;;;;;;18.70;40.40;;;;;;5073381;28;19912;-84
2022/04/01 11:37:29;;;;;;;;;;;16.40;44.10;;;;;;5073294;28;19913;-83
2022/04/01 11:40:07;;;;;;;;;;;15.40;45.10;;;;;;5073685;28;19909;-83
2022/04/01 11:42:33;;;;;;;;;;;15.50;46.10;;;;;;5073342;28;19951;-84
2022/04/01 11:44:59;;;;;;;;;;;22.40;40.00;;;;;;5073282;28;19959;-84
2022/04/01 11:47:32;;;;;;;;;;;23.00;36.50;;;;;;5073317;28;19909;-85
2022/04/01 11:50:08;;;;;;;;;;;22.20;39.00;;;;;;5073590;28;20276;-85
2022/04/01 11:52:38;;;;;;;;;;;23.80;37.00;;;;;;5073276;28;19947;-84
2022/04/01 11:55:10;;;;;;;;;;;24.10;37.30;;;;;;5073052;28;20369;-85
2022/04/01 11:57:36;;;;;;;;;;;24.50;34.30;;;;;;5055074;28;19966;-85
2022/04/01 12:00:08;;;;;;;;;;;24.10;37.00;;;;;;5073120;28;20316;-85
2022/04/01 12:02:35;;;;;;;;;;;26.70;33.40;;;;;;5054934;28;20447;-85
2022/04/01 12:05:00;;;;;;;;;;;30.00;32.20;;;;;;5055075;28;19909;-85
2022/04/01 12:10:17;;;;;;;;;;;26.10;32.00;;;;;;5076525;28;19915;-84
2022/04/01 12:12:51;;;;;;;;;;;20.30;38.00;;;;;;5058762;28;20388;-84
2022/04/01 12:15:17;;;;;;;;;;;17.80;41.10;;;;;;5077015;28;19912;-84
2022/04/01 12:17:49;;;;;;;;;;;23.80;38.50;;;;;;5076668;28;19916;-84
2022/04/01 12:20:14;;;;;;;;;;;26.20;34.10;;;;;;5076970;28;19916;-84
2022/04/01 12:22:40;;;;;;;;;;;29.60;32.70;;;;;;5076517;28;19908;-84
2022/04/01 12:25:06;;;;;;;;;;;24.30;32.50;;;;;;5075226;28;20387;-82
2022/04/01 12:27:31;;;;;;;;;;;19.30;38.10;;;;;;5076579;28;19915;-83
2022/04/01 12:29:58;;;;;;;;;;;21.40;39.70;;;;;;5076476;28;19909;-83
2022/04/01 12:32:24;;;;;;;;;;;28.40;34.60;;;;;;5058449;28;19916;-83
2022/04/01 12:34:51;;;;;;;;;;;27.80;31.40;;;;;;5075015;28;20396;-86
2022/04/01 12:37:17;;;;;;;;;;;21.80;35.50;;;;;;5058386;28;20447;-83
2022/04/01 12:39:45;;;;;;;;;;;19.50;38.10;;;;;;5076274;28;19988;-82
2022/04/01 12:42:12;;;;;;;;;;;26.60;34.80;;;;;;5058650;28;19908;-86
2022/04/01 12:44:41;;;;;;;;;;;30.40;32.20;;;;;;5058225;28;19944;-85
2022/04/01 12:47:07;;;;;;;;;;;29.70;29.70;;;;;;5076522;28;20277;-88
2022/04/01 12:49:34;;;;;;;;;;;32.40;31.10;;;;;;5076135;28;19996;-88
2022/04/01 12:52:04;;;;;;;;;;;34.10;30.30;;;;;;5076357;28;20373;-85
2022/04/01 12:54:31;;;;;;;;;;;34.30;29.60;;;;;;5075899;28;19955;-89
2022/04/01 12:56:58;;;;;;;;;;;32.10;29.70;;;;;;5057906;28;20007;-84
2022/04/01 12:59:24;;;;;;;;;;;25.10;31.70;;;;;;5075967;28;20063;-85
2022/04/01 13:02:00;;;;;;;;;;;23.40;36.00;;;;;;5075881;28;19940;-88
2022/04/01 13:04:26;;;;;;;;;;;28.30;33.70;;;;;;5075866;28;19908;-85
2022/04/01 13:07:10;;;;;;;;;;;28.30;30.40;;;;;;5057831;28;20347;-86
2022/04/01 13:09:46;;;;;;;;;;;24.90;33.90;;;;;;5076328;28;20377;-88
2022/04/01 13:12:11;;;;;;;;;;;22.80;33.90;;;;;;5075998;28;19908;-79
2022/04/01 13:14:37;;;;;;;;;;;20.90;36.40;;;;;;5075668;28;19915;-88
2022/04/01 13:17:09;;;;;;;;;;;18.60;39.50;;;;;;5075361;28;19962;-76
2022/04/01 13:19:37;;;;;;;;;;;18.80;40.20;;;;;;5075250;28;19921;-77
2022/04/01 13:22:07;;;;;;;;;;;18.00;40.80;;;;;;5074142;28;19912;-76
2022/04/01 13:24:43;;;;;;;;;;;22.80;38.20;;;;;;5075723;28;19920;-79
2022/04/01 13:27:10;;;;;;;;;;;29.10;33.90;;;;;;5075359;28;20336;-80
2022/04/01 13:29:36;;;;;;;;;;;26.60;34.30;;;;;;5057377;28;19909;-79
2022/04/01 13:32:02;;;;;;;;;;;21.10;34.60;;;;;;5075319;28;20474;-79
2022/04/01 13:34:28;;;;;;;;;;;25.00;35.80;;;;;;5075808;28;19915;-77
2022/04/01 13:36:55;;;;;;;;;;;21.60;36.60;;;;;;5075390;28;20287;-78
2022/04/01 13:39:32;;;;;;;;;;;23.90;37.00;;;;;;5075137;28;19995;-87
2022/04/01 13:41:58;;;;;;;;;;;28.80;32.50;;;;;;5056896;28;19908;-86
2022/04/01 13:44:23;;;;;;;;;;;26.70;32.20;;;;;;5075131;28;19951;-86
2022/04/01 13:46:49;;;;;;;;;;;21.90;35.00;;;;;;5075235;28;19908;-87
2022/04/01 13:49:15;;;;;;;;;;;18.50;38.90;;;;;;5074998;28;19996;-87
2022/04/01 13:51:41;;;;;;;;;;;16.50;42.90;;;;;;5074867;28;19908;-87
2022/04/01 13:54:07;;;;;;;;;;;15.40;45.40;;;;;;5075050;28;19991;-85
2022/04/01 13:56:33;;;;;;;;;;;13.70;52.50;;;;;;5074765;28;19947;-89
2022/04/01 13:58:59;;;;;;;;;;;11.90;65.10;;;;;;5056738;28;19913;-83
2022/04/01 14:01:24;;;;;;;;;;;11.50;71.80;;;;;;5074944;28;19915;-83
2022/04/01 14:03:50;;;;;;;;;;;12.00;70.40;;;;;;5074624;28;20284;-86
2022/04/01 14:06:16;;;;;;;;;;;16.80;58.40;;;;;;5056659;28;19989;-86
2022/04/01 14:08:41;;;;;;;;;;;16.90;55.70;;;;;;5074643;28;20368;-87
2022/04/01 14:11:07;;;;;;;;;;;21.30;50.20;;;;;;5074795;28;19951;-83
2022/04/01 14:13:33;;;;;;;;;;;23.70;42.40;;;;;;5074519;28;20333;-85
2022/04/01 14:16:00;;;;;;;;;;;20.60;43.60;;;;;;5074468;28;19908;-83
2022/04/01 14:18:25;;;;;;;;;;;22.10;43.90;;;;;;5056189;28;19921;-83
2022/04/01 14:20:52;;;;;;;;;;;19.00;44.50;;;;;;5074568;28;19915;-82
2022/04/01 14:23:18;;;;;;;;;;;16.30;50.50;;;;;;5056408;28;20381;-83
2022/04/01 14:25:47;;;;;;;;;;;14.60;56.60;;;;;;5074297;28;19909;-83
2022/04/01 14:28:15;;;;;;;;;;;13.30;60.30;;;;;;5074081;28;19912;-86
2022/04/01 14:30:41;;;;;;;;;;;12.30;64.70;;;;;;5073587;28;19908;-84
2022/04/01 14:33:07;;;;;;;;;;;11.20;67.60;;;;;;5056206;28;20426;-83
2022/04/01 14:35:33;;;;;;;;;;;10.00;80.20;;;;;;5074074;28;19912;-84
2022/04/01 14:38:01;;;;;;;;;;;9.70;97.70;;;;;;5056049;28;19935;-82